sensor_id;sensor_type;location;lat;lon;timestamp;temperature;humidity
2647;DHT22;1333;50.958;6.770;2022-07-01T00:00:31;15.40;99.90
2647;DHT22;1333;50.958;6.770;2022-07-01T00:02:57;15.40;99.90
2647;DHT22;1333;50.958;6.770;2022-07-01T00:05:23;15.50;99.90
2647;DHT22;1333;50.958;6.770;2022-07-01T00:07:48;15.50;99.90
2647;DHT22;1333;50.958;6.770;2022-07-01T00:10:14;15.50;99.90
2647;DHT22;1333;50.958;6.770;2022-07-01T00:12:40;15.40;99.90
2647;DHT22;1333;50.958;6.770;2022-07-01T00:15:06;15.40;99.90
2647;DHT22;1333;50.958;6.770;2022-07-01T00:17:33;15.50;99.90
2647;DHT22;1333;50.958;6.770;2022-07-01T00:19:59;15.40;99.90
2647;DHT22;1333;50.958;6.770;2022-07-01T00:22:24;15.40;99.90
2647;DHT22;1333;50.958;6.770;2022-07-01T00:24:53;15.40;99.90
2647;DHT22;1333;50.958;6.770;2022-07-01T00:27:18;15.40;99.90
2647;DHT22;1333;50.958;6.770;2022-07-01T00:29:44;15.40;99.90
2647;DHT22;1333;50.958;6.770;2022-07-01T00:32:09;15.40;99.90
2647;DHT22;1333;50.958;6.770;2022-07-01T00:34:35;15.40;99.90
2647;DHT22;1333;50.958;6.770;2022-07-01T00:37:01;15.50;99.90
2647;DHT22;1333;50.958;6.770;2022-07-01T00:39:26;15.50;99.90
2647;DHT22;1333;50.958;6.770;2022-07-01T00:41:52;15.50;99.90
2647;DHT22;1333;50.958;6.770;2022-07-01T00:44:18;15.50;99.90
2647;DHT22;1333;50.958;6.770;2022-07-01T00:46:45;15.60;99.90
2647;DHT22;1333;50.958;6.770;2022-07-01T00:49:11;15.60;99.90
2647;DHT22;1333;50.958;6.770;2022-07-01T00:51:37;15.60;99.90
2647;DHT22;1333;50.958;6.770;2022-07-01T00:54:03;15.60;99.90
2647;DHT22;1333;50.958;6.770;2022-07-01T00:56:29;15.60;99.90
2647;DHT22;1333;50.958;6.770;2022-07-01T00:58:55;15.60;99.90
2647;DHT22;1333;50.958;6.770;2022-07-01T01:01:21;15.60;99.90
2647;DHT22;1333;50.958;6.770;2022-07-01T01:03:48;15.60;99.90
2647;DHT22;1333;50.958;6.770;2022-07-01T01:06:15;15.60;99.90
2647;DHT22;1333;50.958;6.770;2022-07-01T01:08:41;15.60;99.90
2647;DHT22;1333;50.958;6.770;2022-07-01T01:11:07;15.60;99.90
2647;DHT22;1333;50.958;6.770;2022-07-01T01:13:33;15.60;99.90
2647;DHT22;1333;50.958;6.770;2022-07-01T01:15:58;15.50;99.90
2647;DHT22;1333;50.958;6.770;2022-07-01T01:18:24;15.50;99.90
2647;DHT22;1333;50.958;6.770;2022-07-01T01:20:52;15.50;99.90
2647;DHT22;1333;50.958;6.770;2022-07-01T01:23:18;15.40;99.90
2647;DHT22;1333;50.958;6.770;2022-07-01T01:25:43;15.40;99.90
2647;DHT22;1333;50.958;6.770;2022-07-01T01:28:12;15.30;99.90
2647;DHT22;1333;50.958;6.770;2022-07-01T01:30:37;15.30;99.90
2647;DHT22;1333;50.958;6.770;2022-07-01T01:33:03;15.30;99.90
2647;DHT22;1333;50.958;6.770;2022-07-01T01:35:28;15.30;99.90
2647;DHT22;1333;50.958;6.770;2022-07-01T01:37:54;15.30;99.90
2647;DHT22;1333;50.958;6.770;2022-07-01T01:40:20;15.30;99.90
2647;DHT22;1333;50.958;6.770;2022-07-01T01:42:45;15.30;99.90
2647;DHT22;1333;50.958;6.770;2022-07-01T01:45:11;15.30;99.90
2647;DHT22;1333;50.958;6.770;2022-07-01T01:47:37;15.20;99.90
2647;DHT22;1333;50.958;6.770;2022-07-01T01:50:08;15.20;99.90
2647;DHT22;1333;50.958;6.770;2022-07-01T01:52:33;15.20;99.90
2647;DHT22;1333;50.958;6.770;2022-07-01T01:55:00;15.20;99.90
2647;DHT22;1333;50.958;6.770;2022-07-01T01:57:25;15.20;99.90
2647;DHT22;1333;50.958;6.770;2022-07-01T01:59:51;15.10;99.90
2647;DHT22;1333;50.958;6.770;2022-07-01T02:02:16;15.10;99.90
2647;DHT22;1333;50.958;6.770;2022-07-01T02:04:42;15.00;99.90
2647;DHT22;1333;50.958;6.770;2022-07-01T02:07:08;14.90;99.90
2647;DHT22;1333;50.958;6.770;2022-07-01T02:09:33;14.90;99.90
2647;DHT22;1333;50.958;6.770;2022-07-01T02:11:59;14.80;99.90
2647;DHT22;1333;50.958;6.770;2022-07-01T02:14:24;14.80;99.90
2647;DHT22;1333;50.958;6.770;2022-07-01T02:16:50;14.80;99.90
2647;DHT22;1333;50.958;6.770;2022-07-01T02:19:15;14.80;99.90
2647;DHT22;1333;50.958;6.770;2022-07-01T02:21:41;14.80;99.90
2647;DHT22;1333;50.958;6.770;2022-07-01T02:24:07;14.80;99.90
2647;DHT22;1333;50.958;6.770;2022-07-01T02:26:33;14.80;99.90
2647;DHT22;1333;50.958;6.770;2022-07-01T02:28:58;14.70;99.90
2647;DHT22;1333;50.958;6.770;2022-07-01T02:31:24;14.80;99.90
2647;DHT22;1333;50.958;6.770;2022-07-01T02:33:49;14.80;99.90
2647;DHT22;1333;50.958;6.770;2022-07-01T02:36:15;14.70;99.90
2647;DHT22;1333;50.958;6.770;2022-07-01T02:38:41;14.70;99.90
2647;DHT22;1333;50.958;6.770;2022-07-01T02:41:06;14.70;99.90
2647;DHT22;1333;50.958;6.770;2022-07-01T02:43:32;14.70;99.90
2647;DHT22;1333;50.958;6.770;2022-07-01T02:45:58;14.60;99.90
2647;DHT22;1333;50.958;6.770;2022-07-01T02:48:23;14.70;99.90
2647;DHT22;1333;50.958;6.770;2022-07-01T02:50:49;14.70;99.90
2647;DHT22;1333;50.958;6.770;2022-07-01T02:53:14;14.70;99.90
2647;DHT22;1333;50.958;6.770;2022-07-01T02:55:40;14.60;99.90
2647;DHT22;1333;50.958;6.770;2022-07-01T02:58:05;14.60;99.90
2647;DHT22;1333;50.958;6.770;2022-07-01T03:00:31;14.60;99.90
2647;DHT22;1333;50.958;6.770;2022-07-01T03:02:57;14.60;99.90
2647;DHT22;1333;50.958;6.770;2022-07-01T03:05:22;14.60;99.90
2647;DHT22;1333;50.958;6.770;2022-07-01T03:07:48;14.60;99.90
2647;DHT22;1333;50.958;6.770;2022-07-01T03:10:13;14.60;99.90
2647;DHT22;1333;50.958;6.770;2022-07-01T03:12:39;14.60;99.90
2647;DHT22;1333;50.958;6.770;2022-07-01T03:15:07;14.60;99.90
2647;DHT22;1333;50.958;6.770;2022-07-01T03:17:35;14.50;99.90
2647;DHT22;1333;50.958;6.770;2022-07-01T03:20:02;14.50;99.90
2647;DHT22;1333;50.958;6.770;2022-07-01T03:22:29;14.40;99.90
2647;DHT22;1333;50.958;6.770;2022-07-01T03:24:55;14.50;99.90
2647;DHT22;1333;50.958;6.770;2022-07-01T03:27:21;14.50;99.90
2647;DHT22;1333;50.958;6.770;2022-07-01T03:29:48;14.40;99.90
2647;DHT22;1333;50.958;6.770;2022-07-01T03:32:14;14.50;99.90
2647;DHT22;1333;50.958;6.770;2022-07-01T03:34:42;14.50;99.90
2647;DHT22;1333;50.958;6.770;2022-07-01T03:37:09;14.40;99.90
2647;DHT22;1333;50.958;6.770;2022-07-01T03:39:36;14.40;99.90
2647;DHT22;1333;50.958;6.770;2022-07-01T03:42:03;14.40;99.90
2647;DHT22;1333;50.958;6.770;2022-07-01T03:44:29;14.40;99.90
2647;DHT22;1333;50.958;6.770;2022-07-01T03:46:55;14.30;99.90
2647;DHT22;1333;50.958;6.770;2022-07-01T03:49:21;14.40;99.90
2647;DHT22;1333;50.958;6.770;2022-07-01T03:51:48;14.40;99.90
2647;DHT22;1333;50.958;6.770;2022-07-01T03:54:13;14.40;99.90
2647;DHT22;1333;50.958;6.770;2022-07-01T03:57:07;14.40;99.90
2647;DHT22;1333;50.958;6.770;2022-07-01T03:59:36;14.40;99.90
2647;DHT22;1333;50.958;6.770;2022-07-01T04:02:04;14.40;99.90
2647;DHT22;1333;50.958;6.770;2022-07-01T04:04:30;14.40;99.90
2647;DHT22;1333;50.958;6.770;2022-07-01T04:06:58;14.50;99.90
2647;DHT22;1333;50.958;6.770;2022-07-01T04:09:24;14.40;99.90
2647;DHT22;1333;50.958;6.770;2022-07-01T04:11:50;14.50;99.90
2647;DHT22;1333;50.958;6.770;2022-07-01T04:14:16;14.50;99.90
2647;DHT22;1333;50.958;6.770;2022-07-01T04:16:43;14.50;99.90
2647;DHT22;1333;50.958;6.770;2022-07-01T04:19:09;14.50;99.90
2647;DHT22;1333;50.958;6.770;2022-07-01T04:21:36;14.60;99.90
2647;DHT22;1333;50.958;6.770;2022-07-01T04:24:20;14.60;99.90
2647;DHT22;1333;50.958;6.770;2022-07-01T04:26:45;14.70;99.90
2647;DHT22;1333;50.958;6.770;2022-07-01T04:29:11;14.80;99.90
2647;DHT22;1333;50.958;6.770;2022-07-01T04:31:37;14.80;99.90
2647;DHT22;1333;50.958;6.770;2022-07-01T04:34:05;14.80;99.90
2647;DHT22;1333;50.958;6.770;2022-07-01T04:36:31;14.80;99.90
2647;DHT22;1333;50.958;6.770;2022-07-01T04:38:56;14.90;99.90
2647;DHT22;1333;50.958;6.770;2022-07-01T04:41:23;14.90;99.90
2647;DHT22;1333;50.958;6.770;2022-07-01T04:44:07;14.90;99.90
2647;DHT22;1333;50.958;6.770;2022-07-01T04:46:33;14.90;99.90
2647;DHT22;1333;50.958;6.770;2022-07-01T04:48:59;15.00;99.90
2647;DHT22;1333;50.958;6.770;2022-07-01T04:51:24;15.00;99.90
2647;DHT22;1333;50.958;6.770;2022-07-01T04:53:50;15.00;99.90
2647;DHT22;1333;50.958;6.770;2022-07-01T04:56:15;15.00;99.90
2647;DHT22;1333;50.958;6.770;2022-07-01T04:58:41;15.00;99.90
2647;DHT22;1333;50.958;6.770;2022-07-01T05:01:06;15.00;99.90
2647;DHT22;1333;50.958;6.770;2022-07-01T05:03:32;15.00;99.90
2647;DHT22;1333;50.958;6.770;2022-07-01T05:05:58;15.00;99.90
2647;DHT22;1333;50.958;6.770;2022-07-01T05:08:23;15.00;99.90
2647;DHT22;1333;50.958;6.770;2022-07-01T05:10:49;15.00;99.90
2647;DHT22;1333;50.958;6.770;2022-07-01T05:13:15;15.10;99.90
2647;DHT22;1333;50.958;6.770;2022-07-01T05:15:40;15.20;99.90
2647;DHT22;1333;50.958;6.770;2022-07-01T05:18:06;15.30;99.90
2647;DHT22;1333;50.958;6.770;2022-07-01T05:20:50;15.40;99.90
2647;DHT22;1333;50.958;6.770;2022-07-01T05:23:34;15.60;99.90
2647;DHT22;1333;50.958;6.770;2022-07-01T05:26:01;15.80;99.90
2647;DHT22;1333;50.958;6.770;2022-07-01T05:28:26;16.00;99.90
2647;DHT22;1333;50.958;6.770;2022-07-01T05:30:52;16.10;99.90
2647;DHT22;1333;50.958;6.770;2022-07-01T05:33:18;16.20;99.90
2647;DHT22;1333;50.958;6.770;2022-07-01T05:35:44;16.40;99.90
2647;DHT22;1333;50.958;6.770;2022-07-01T05:38:10;16.40;99.90
2647;DHT22;1333;50.958;6.770;2022-07-01T05:40:35;16.50;99.90
2647;DHT22;1333;50.958;6.770;2022-07-01T05:43:01;16.50;99.90
2647;DHT22;1333;50.958;6.770;2022-07-01T05:45:26;16.60;99.90
2647;DHT22;1333;50.958;6.770;2022-07-01T05:47:52;16.60;99.90
2647;DHT22;1333;50.958;6.770;2022-07-01T05:50:17;16.60;99.90
2647;DHT22;1333;50.958;6.770;2022-07-01T05:52:43;16.60;99.90
2647;DHT22;1333;50.958;6.770;2022-07-01T05:55:09;16.60;99.90
2647;DHT22;1333;50.958;6.770;2022-07-01T05:57:35;16.70;99.90
2647;DHT22;1333;50.958;6.770;2022-07-01T06:00:02;16.80;99.90
2647;DHT22;1333;50.958;6.770;2022-07-01T06:02:28;17.00;99.90
2647;DHT22;1333;50.958;6.770;2022-07-01T06:04:53;17.20;99.90
2647;DHT22;1333;50.958;6.770;2022-07-01T06:07:19;17.40;99.90
2647;DHT22;1333;50.958;6.770;2022-07-01T06:09:44;17.60;99.90
2647;DHT22;1333;50.958;6.770;2022-07-01T06:12:11;17.80;99.90
2647;DHT22;1333;50.958;6.770;2022-07-01T06:14:36;17.90;99.90
2647;DHT22;1333;50.958;6.770;2022-07-01T06:17:03;18.10;99.90
2647;DHT22;1333;50.958;6.770;2022-07-01T06:19:29;18.20;99.90
2647;DHT22;1333;50.958;6.770;2022-07-01T06:21:55;18.30;99.90
2647;DHT22;1333;50.958;6.770;2022-07-01T06:24:21;18.50;99.90
2647;DHT22;1333;50.958;6.770;2022-07-01T06:26:47;18.70;99.90
2647;DHT22;1333;50.958;6.770;2022-07-01T06:29:13;18.90;99.90
2647;DHT22;1333;50.958;6.770;2022-07-01T06:31:39;19.20;99.90
2647;DHT22;1333;50.958;6.770;2022-07-01T06:34:04;19.80;99.90
2647;DHT22;1333;50.958;6.770;2022-07-01T06:36:30;20.60;99.90
2647;DHT22;1333;50.958;6.770;2022-07-01T06:38:55;21.00;99.90
2647;DHT22;1333;50.958;6.770;2022-07-01T06:41:21;21.20;99.90
2647;DHT22;1333;50.958;6.770;2022-07-01T06:43:57;21.30;99.90
2647;DHT22;1333;50.958;6.770;2022-07-01T06:46:23;21.30;99.90
2647;DHT22;1333;50.958;6.770;2022-07-01T06:48:48;21.20;99.90
2647;DHT22;1333;50.958;6.770;2022-07-01T06:51:14;21.10;99.90
2647;DHT22;1333;50.958;6.770;2022-07-01T06:53:40;20.90;99.90
2647;DHT22;1333;50.958;6.770;2022-07-01T06:56:05;20.80;99.90
2647;DHT22;1333;50.958;6.770;2022-07-01T06:58:31;20.70;99.90
2647;DHT22;1333;50.958;6.770;2022-07-01T07:00:57;20.60;99.90
2647;DHT22;1333;50.958;6.770;2022-07-01T07:03:22;20.60;99.90
2647;DHT22;1333;50.958;6.770;2022-07-01T07:05:48;20.50;99.90
2647;DHT22;1333;50.958;6.770;2022-07-01T07:08:14;20.60;99.90
2647;DHT22;1333;50.958;6.770;2022-07-01T07:10:40;20.60;99.90
2647;DHT22;1333;50.958;6.770;2022-07-01T07:13:05;20.90;99.90
2647;DHT22;1333;50.958;6.770;2022-07-01T07:15:31;21.20;99.90
2647;DHT22;1333;50.958;6.770;2022-07-01T07:17:56;21.40;99.90
2647;DHT22;1333;50.958;6.770;2022-07-01T07:20:24;21.50;99.90
2647;DHT22;1333;50.958;6.770;2022-07-01T07:22:50;21.50;99.90
2647;DHT22;1333;50.958;6.770;2022-07-01T07:25:16;21.40;99.90
2647;DHT22;1333;50.958;6.770;2022-07-01T07:27:42;21.30;99.90
2647;DHT22;1333;50.958;6.770;2022-07-01T07:30:12;21.30;99.90
2647;DHT22;1333;50.958;6.770;2022-07-01T07:32:37;21.40;99.90
2647;DHT22;1333;50.958;6.770;2022-07-01T07:35:03;21.40;99.90
2647;DHT22;1333;50.958;6.770;2022-07-01T07:37:29;21.40;99.90
2647;DHT22;1333;50.958;6.770;2022-07-01T07:39:58;21.60;99.90
2647;DHT22;1333;50.958;6.770;2022-07-01T07:42:23;21.70;99.90
2647;DHT22;1333;50.958;6.770;2022-07-01T07:44:49;21.80;99.90
2647;DHT22;1333;50.958;6.770;2022-07-01T07:47:14;21.90;99.90
2647;DHT22;1333;50.958;6.770;2022-07-01T07:49:40;22.00;99.90
2647;DHT22;1333;50.958;6.770;2022-07-01T07:52:05;22.90;99.90
2647;DHT22;1333;50.958;6.770;2022-07-01T07:54:31;24.30;99.90
2647;DHT22;1333;50.958;6.770;2022-07-01T07:56:57;26.40;99.90
2647;DHT22;1333;50.958;6.770;2022-07-01T07:59:22;28.60;99.90
2647;DHT22;1333;50.958;6.770;2022-07-01T08:01:48;29.20;97.20
2647;DHT22;1333;50.958;6.770;2022-07-01T08:04:13;29.00;89.90
2647;DHT22;1333;50.958;6.770;2022-07-01T08:06:39;28.60;73.70
2647;DHT22;1333;50.958;6.770;2022-07-01T08:09:05;27.90;75.60
2647;DHT22;1333;50.958;6.770;2022-07-01T08:11:31;27.70;83.30
2647;DHT22;1333;50.958;6.770;2022-07-01T08:13:57;28.10;92.60
2647;DHT22;1333;50.958;6.770;2022-07-01T08:16:23;28.70;94.40
2647;DHT22;1333;50.958;6.770;2022-07-01T08:18:48;30.40;89.10
2647;DHT22;1333;50.958;6.770;2022-07-01T08:21:14;32.50;80.90
2647;DHT22;1333;50.958;6.770;2022-07-01T08:23:40;33.20;64.40
2647;DHT22;1333;50.958;6.770;2022-07-01T08:26:05;33.80;58.50
2647;DHT22;1333;50.958;6.770;2022-07-01T08:28:31;34.50;51.90
2647;DHT22;1333;50.958;6.770;2022-07-01T08:30:57;35.20;47.50
2647;DHT22;1333;50.958;6.770;2022-07-01T08:33:22;35.70;47.20
2647;DHT22;1333;50.958;6.770;2022-07-01T08:35:48;35.50;47.40
2647;DHT22;1333;50.958;6.770;2022-07-01T08:38:13;34.70;46.80
2647;DHT22;1333;50.958;6.770;2022-07-01T08:40:40;33.90;48.00
2647;DHT22;1333;50.958;6.770;2022-07-01T08:43:06;33.90;45.60
2647;DHT22;1333;50.958;6.770;2022-07-01T08:45:34;33.40;46.60
2647;DHT22;1333;50.958;6.770;2022-07-01T08:48:04;32.80;45.20
2647;DHT22;1333;50.958;6.770;2022-07-01T08:50:34;32.20;45.10
2647;DHT22;1333;50.958;6.770;2022-07-01T08:53:00;32.00;46.60
2647;DHT22;1333;50.958;6.770;2022-07-01T08:55:26;32.60;48.30
2647;DHT22;1333;50.958;6.770;2022-07-01T08:57:52;33.20;47.90
2647;DHT22;1333;50.958;6.770;2022-07-01T09:00:18;33.60;46.60
2647;DHT22;1333;50.958;6.770;2022-07-01T09:02:58;33.60;46.00
2647;DHT22;1333;50.958;6.770;2022-07-01T09:05:25;33.50;45.10
2647;DHT22;1333;50.958;6.770;2022-07-01T09:07:57;33.10;44.60
2647;DHT22;1333;50.958;6.770;2022-07-01T09:10:23;32.50;44.50
2647;DHT22;1333;50.958;6.770;2022-07-01T09:12:49;32.00;45.30
2647;DHT22;1333;50.958;6.770;2022-07-01T09:15:31;31.60;46.00
2647;DHT22;1333;50.958;6.770;2022-07-01T09:18:12;31.10;47.20
2647;DHT22;1333;50.958;6.770;2022-07-01T09:20:40;30.60;47.00
2647;DHT22;1333;50.958;6.770;2022-07-01T09:23:10;30.10;48.40
2647;DHT22;1333;50.958;6.770;2022-07-01T09:25:37;30.00;48.20
2647;DHT22;1333;50.958;6.770;2022-07-01T09:30:43;31.50;49.80
2647;DHT22;1333;50.958;6.770;2022-07-01T09:33:18;32.50;46.00
2647;DHT22;1333;50.958;6.770;2022-07-01T09:35:45;32.70;45.00
2647;DHT22;1333;50.958;6.770;2022-07-01T09:38:14;32.40;45.60
2647;DHT22;1333;50.958;6.770;2022-07-01T09:40:57;31.90;45.20
2647;DHT22;1333;50.958;6.770;2022-07-01T09:43:25;31.50;46.90
2647;DHT22;1333;50.958;6.770;2022-07-01T09:45:52;31.10;47.80
2647;DHT22;1333;50.958;6.770;2022-07-01T09:48:18;30.90;47.70
2647;DHT22;1333;50.958;6.770;2022-07-01T09:50:45;32.20;50.20
2647;DHT22;1333;50.958;6.770;2022-07-01T09:53:10;33.20;49.00
2647;DHT22;1333;50.958;6.770;2022-07-01T09:55:36;34.00;47.50
2647;DHT22;1333;50.958;6.770;2022-07-01T09:58:02;34.50;46.10
2647;DHT22;1333;50.958;6.770;2022-07-01T10:00:29;34.70;44.20
2647;DHT22;1333;50.958;6.770;2022-07-01T10:02:57;35.30;44.00
2647;DHT22;1333;50.958;6.770;2022-07-01T10:05:25;35.80;42.10
2647;DHT22;1333;50.958;6.770;2022-07-01T10:13:17;41.20;37.10
2647;DHT22;1333;50.958;6.770;2022-07-01T10:15:43;43.00;32.80
2647;DHT22;1333;50.958;6.770;2022-07-01T10:18:25;44.60;30.70
2647;DHT22;1333;50.958;6.770;2022-07-01T10:20:52;45.50;29.20
2647;DHT22;1333;50.958;6.770;2022-07-01T10:23:20;46.50;28.70
2647;DHT22;1333;50.958;6.770;2022-07-01T10:25:53;46.60;29.10
2647;DHT22;1333;50.958;6.770;2022-07-01T10:31:05;43.90;28.10
2647;DHT22;1333;50.958;6.770;2022-07-01T10:33:40;42.50;29.00
2647;DHT22;1333;50.958;6.770;2022-07-01T10:41:55;39.60;31.30
2647;DHT22;1333;50.958;6.770;2022-07-01T10:44:22;38.70;32.90
2647;DHT22;1333;50.958;6.770;2022-07-01T10:46:52;39.50;34.60
2647;DHT22;1333;50.958;6.770;2022-07-01T10:52:11;42.10;32.10
2647;DHT22;1333;50.958;6.770;2022-07-01T10:59:49;44.70;29.70
2647;DHT22;1333;50.958;6.770;2022-07-01T11:02:24;44.60;29.00
2647;DHT22;1333;50.958;6.770;2022-07-01T11:04:54;43.70;28.50
2647;DHT22;1333;50.958;6.770;2022-07-01T11:07:24;42.60;29.00
2647;DHT22;1333;50.958;6.770;2022-07-01T11:09:50;41.40;29.50
2647;DHT22;1333;50.958;6.770;2022-07-01T11:12:15;41.00;30.50
2647;DHT22;1333;50.958;6.770;2022-07-01T11:14:42;41.20;31.30
2647;DHT22;1333;50.958;6.770;2022-07-01T11:17:09;42.50;31.20
2647;DHT22;1333;50.958;6.770;2022-07-01T11:19:35;42.30;29.80
2647;DHT22;1333;50.958;6.770;2022-07-01T11:22:01;42.10;29.80
2647;DHT22;1333;50.958;6.770;2022-07-01T11:24:28;41.80;29.50
2647;DHT22;1333;50.958;6.770;2022-07-01T11:27:07;41.00;29.50
2647;DHT22;1333;50.958;6.770;2022-07-01T11:29:33;40.30;28.80
2647;DHT22;1333;50.958;6.770;2022-07-01T11:31:59;40.00;29.00
2647;DHT22;1333;50.958;6.770;2022-07-01T11:34:27;40.00;29.00
2647;DHT22;1333;50.958;6.770;2022-07-01T11:36:55;39.80;29.60
2647;DHT22;1333;50.958;6.770;2022-07-01T11:39:39;39.70;30.30
2647;DHT22;1333;50.958;6.770;2022-07-01T11:42:08;40.30;32.80
2647;DHT22;1333;50.958;6.770;2022-07-01T11:44:39;41.80;30.80
2647;DHT22;1333;50.958;6.770;2022-07-01T11:47:08;43.20;28.20
2647;DHT22;1333;50.958;6.770;2022-07-01T11:49:34;44.60;26.50
2647;DHT22;1333;50.958;6.770;2022-07-01T11:52:02;46.00;26.90
2647;DHT22;1333;50.958;6.770;2022-07-01T11:54:28;47.20;25.80
2647;DHT22;1333;50.958;6.770;2022-07-01T11:56:54;48.10;24.80
2647;DHT22;1333;50.958;6.770;2022-07-01T11:59:20;49.00;24.80
2647;DHT22;1333;50.958;6.770;2022-07-01T12:01:53;48.70;24.70
2647;DHT22;1333;50.958;6.770;2022-07-01T12:04:19;49.10;25.90
2647;DHT22;1333;50.958;6.770;2022-07-01T12:06:46;49.30;24.60
2647;DHT22;1333;50.958;6.770;2022-07-01T12:09:16;48.00;24.40
2647;DHT22;1333;50.958;6.770;2022-07-01T12:11:47;46.40;24.90
2647;DHT22;1333;50.958;6.770;2022-07-01T12:14:23;46.10;25.70
2647;DHT22;1333;50.958;6.770;2022-07-01T12:17:06;45.70;25.80
2647;DHT22;1333;50.958;6.770;2022-07-01T12:19:41;44.40;25.80
2647;DHT22;1333;50.958;6.770;2022-07-01T12:22:13;42.80;26.20
2647;DHT22;1333;50.958;6.770;2022-07-01T12:24:39;41.40;27.30
2647;DHT22;1333;50.958;6.770;2022-07-01T12:27:06;40.80;28.40
2647;DHT22;1333;50.958;6.770;2022-07-01T12:32:16;41.80;29.60
2647;DHT22;1333;50.958;6.770;2022-07-01T12:34:59;42.70;28.90
2647;DHT22;1333;50.958;6.770;2022-07-01T12:37:32;42.30;27.80
2647;DHT22;1333;50.958;6.770;2022-07-01T12:42:47;43.00;27.00
2647;DHT22;1333;50.958;6.770;2022-07-01T12:45:15;44.10;27.50
2647;DHT22;1333;50.958;6.770;2022-07-01T12:47:45;45.70;27.20
2647;DHT22;1333;50.958;6.770;2022-07-01T12:52:59;46.70;24.10
2647;DHT22;1333;50.958;6.770;2022-07-01T12:55:26;45.20;25.00
2647;DHT22;1333;50.958;6.770;2022-07-01T12:57:54;44.30;25.30
2647;DHT22;1333;50.958;6.770;2022-07-01T13:00:22;43.60;25.10
2647;DHT22;1333;50.958;6.770;2022-07-01T13:02:51;42.60;24.90
2647;DHT22;1333;50.958;6.770;2022-07-01T13:05:17;41.50;26.40
2647;DHT22;1333;50.958;6.770;2022-07-01T13:07:42;41.10;27.20
2647;DHT22;1333;50.958;6.770;2022-07-01T13:10:08;41.40;28.70
2647;DHT22;1333;50.958;6.770;2022-07-01T13:12:34;42.50;27.40
2647;DHT22;1333;50.958;6.770;2022-07-01T13:14:59;43.10;27.50
2647;DHT22;1333;50.958;6.770;2022-07-01T13:17:26;43.50;27.50
2647;DHT22;1333;50.958;6.770;2022-07-01T13:19:52;44.50;26.60
2647;DHT22;1333;50.958;6.770;2022-07-01T13:22:18;45.40;26.00
2647;DHT22;1333;50.958;6.770;2022-07-01T13:24:44;45.60;25.50
2647;DHT22;1333;50.958;6.770;2022-07-01T13:27:10;45.20;25.60
2647;DHT22;1333;50.958;6.770;2022-07-01T13:29:35;44.30;26.00
2647;DHT22;1333;50.958;6.770;2022-07-01T13:32:01;42.90;26.10
2647;DHT22;1333;50.958;6.770;2022-07-01T13:34:27;42.00;27.20
2647;DHT22;1333;50.958;6.770;2022-07-01T13:36:52;41.80;27.40
2647;DHT22;1333;50.958;6.770;2022-07-01T13:39:18;40.40;27.40
2647;DHT22;1333;50.958;6.770;2022-07-01T13:41:43;39.00;27.90
2647;DHT22;1333;50.958;6.770;2022-07-01T13:44:09;37.70;28.50
2647;DHT22;1333;50.958;6.770;2022-07-01T13:46:35;36.50;29.30
2647;DHT22;1333;50.958;6.770;2022-07-01T13:49:01;35.50;30.30
2647;DHT22;1333;50.958;6.770;2022-07-01T13:51:27;34.80;30.80
2647;DHT22;1333;50.958;6.770;2022-07-01T13:53:52;34.10;31.80
2647;DHT22;1333;50.958;6.770;2022-07-01T13:56:18;33.50;32.10
2647;DHT22;1333;50.958;6.770;2022-07-01T13:58:43;32.80;32.70
2647;DHT22;1333;50.958;6.770;2022-07-01T14:01:09;32.20;33.30
2647;DHT22;1333;50.958;6.770;2022-07-01T14:03:35;31.80;34.80
2647;DHT22;1333;50.958;6.770;2022-07-01T14:06:00;31.50;35.60
2647;DHT22;1333;50.958;6.770;2022-07-01T14:08:26;31.20;36.50
2647;DHT22;1333;50.958;6.770;2022-07-01T14:10:53;30.80;35.70
2647;DHT22;1333;50.958;6.770;2022-07-01T14:13:19;30.50;36.00
2647;DHT22;1333;50.958;6.770;2022-07-01T14:15:46;30.20;35.40
2647;DHT22;1333;50.958;6.770;2022-07-01T14:18:13;29.90;36.10
2647;DHT22;1333;50.958;6.770;2022-07-01T14:20:40;29.70;37.10
2647;DHT22;1333;50.958;6.770;2022-07-01T14:23:05;29.40;38.20
2647;DHT22;1333;50.958;6.770;2022-07-01T14:25:31;29.30;38.70
2647;DHT22;1333;50.958;6.770;2022-07-01T14:27:57;29.30;39.70
2647;DHT22;1333;50.958;6.770;2022-07-01T14:30:22;29.30;39.80
2647;DHT22;1333;50.958;6.770;2022-07-01T14:32:48;29.30;38.90
2647;DHT22;1333;50.958;6.770;2022-07-01T14:35:13;29.20;39.40
2647;DHT22;1333;50.958;6.770;2022-07-01T14:37:39;29.20;39.00
2647;DHT22;1333;50.958;6.770;2022-07-01T14:40:05;29.10;38.90
2647;DHT22;1333;50.958;6.770;2022-07-01T14:42:31;28.90;38.60
2647;DHT22;1333;50.958;6.770;2022-07-01T14:44:57;28.80;39.00
2647;DHT22;1333;50.958;6.770;2022-07-01T14:47:23;28.60;40.20
2647;DHT22;1333;50.958;6.770;2022-07-01T14:49:49;28.40;40.20
2647;DHT22;1333;50.958;6.770;2022-07-01T14:52:19;28.10;40.40
2647;DHT22;1333;50.958;6.770;2022-07-01T14:54:45;27.90;40.60
2647;DHT22;1333;50.958;6.770;2022-07-01T14:57:11;27.80;40.60
2647;DHT22;1333;50.958;6.770;2022-07-01T14:59:37;27.70;40.20
2647;DHT22;1333;50.958;6.770;2022-07-01T15:02:03;27.70;40.40
2647;DHT22;1333;50.958;6.770;2022-07-01T15:04:32;27.60;40.80
2647;DHT22;1333;50.958;6.770;2022-07-01T15:06:58;27.60;40.80
2647;DHT22;1333;50.958;6.770;2022-07-01T15:09:24;27.40;39.80
2647;DHT22;1333;50.958;6.770;2022-07-01T15:11:51;27.30;39.70
2647;DHT22;1333;50.958;6.770;2022-07-01T15:14:17;27.10;39.30
2647;DHT22;1333;50.958;6.770;2022-07-01T15:16:43;26.90;39.70
2647;DHT22;1333;50.958;6.770;2022-07-01T15:19:09;26.70;40.30
2647;DHT22;1333;50.958;6.770;2022-07-01T15:21:34;26.50;41.70
2647;DHT22;1333;50.958;6.770;2022-07-01T15:24:00;26.40;42.70
2647;DHT22;1333;50.958;6.770;2022-07-01T15:26:26;26.40;43.30
2647;DHT22;1333;50.958;6.770;2022-07-01T15:28:51;26.50;44.30
2647;DHT22;1333;50.958;6.770;2022-07-01T15:31:17;26.60;44.50
2647;DHT22;1333;50.958;6.770;2022-07-01T15:33:43;26.80;45.00
2647;DHT22;1333;50.958;6.770;2022-07-01T15:36:09;27.00;45.20
2647;DHT22;1333;50.958;6.770;2022-07-01T15:38:38;27.10;45.30
2647;DHT22;1333;50.958;6.770;2022-07-01T15:41:05;27.20;42.40
2647;DHT22;1333;50.958;6.770;2022-07-01T15:43:34;27.20;42.60
2647;DHT22;1333;50.958;6.770;2022-07-01T15:46:00;27.30;42.90
2647;DHT22;1333;50.958;6.770;2022-07-01T15:48:26;27.20;43.00
2647;DHT22;1333;50.958;6.770;2022-07-01T15:50:52;27.20;42.00
2647;DHT22;1333;50.958;6.770;2022-07-01T15:53:19;27.00;41.20
2647;DHT22;1333;50.958;6.770;2022-07-01T15:55:49;26.90;40.80
2647;DHT22;1333;50.958;6.770;2022-07-01T15:58:16;26.70;41.90
2647;DHT22;1333;50.958;6.770;2022-07-01T16:00:44;26.50;41.70
2647;DHT22;1333;50.958;6.770;2022-07-01T16:03:10;26.40;41.90
2647;DHT22;1333;50.958;6.770;2022-07-01T16:05:37;26.30;41.80
2647;DHT22;1333;50.958;6.770;2022-07-01T16:08:05;26.20;41.50
2647;DHT22;1333;50.958;6.770;2022-07-01T16:10:45;26.00;42.80
2647;DHT22;1333;50.958;6.770;2022-07-01T16:13:16;25.80;43.40
2647;DHT22;1333;50.958;6.770;2022-07-01T16:15:47;25.70;44.20
2647;DHT22;1333;50.958;6.770;2022-07-01T16:18:14;25.60;44.00
2647;DHT22;1333;50.958;6.770;2022-07-01T16:20:45;25.50;44.40
2647;DHT22;1333;50.958;6.770;2022-07-01T16:23:13;25.40;44.90
2647;DHT22;1333;50.958;6.770;2022-07-01T16:25:40;25.30;45.10
2647;DHT22;1333;50.958;6.770;2022-07-01T16:28:09;25.20;45.60
2647;DHT22;1333;50.958;6.770;2022-07-01T16:30:37;25.10;45.60
2647;DHT22;1333;50.958;6.770;2022-07-01T16:33:03;25.00;46.00